Time;durP1;ratioP1;P1;durP2;ratioP2;P2;SDS_P1;SDS_P2;PMS_P1;PMS_P2;Temp;Humidity;BMP_temperature;BMP_pressure;BME280_temperature;BME280_humidity;BME280_pressure;Samples;Min_cycle;Max_cycle;Signal;HPM_P1;HPM_P2
2023/10/26 00:00:37;;;;;;;23.07;20.63;;;;;;;9.30;100.00;99478.41;5284846;28;20035;-84
2023/10/26 00:03:09;;;;;;;22.23;20.03;;;;;;;9.20;100.00;99476.13;5283266;28;20028;-84
2023/10/26 00:05:40;;;;;;;23.53;21.33;;;;;;;9.23;100.00;99487.28;5283703;28;20030;-83
2023/10/26 00:08:11;;;;;;;22.57;20.17;;;;;;;9.21;100.00;99483.00;5283703;28;20025;-84
2023/10/26 00:10:43;;;;;;;23.87;21.33;;;;;;;9.24;100.00;99491.59;5283689;28;20029;-84
2023/10/26 00:13:14;;;;;;;23.73;20.83;;;;;;;9.26;100.00;99495.00;5282119;28;20032;-86
2023/10/26 00:15:45;;;;;;;23.03;20.83;;;;;;;9.22;100.00;99495.13;5281509;28;20067;-85
2023/10/26 00:18:17;;;;;;;22.73;20.53;;;;;;;9.21;100.00;99494.28;5282749;28;20021;-84
2023/10/26 00:20:49;;;;;;;24.80;22.30;;;;;;;9.21;100.00;99493.41;5283104;28;20035;-83
2023/10/26 00:23:20;;;;;;;23.08;20.92;;;;;;;9.21;100.00;99502.09;5282910;28;20021;-83
2023/10/26 00:25:51;;;;;;;23.83;21.23;;;;;;;9.18;100.00;99498.72;5283218;28;20476;-84
2023/10/26 00:28:23;;;;;;;23.13;20.73;;;;;;;9.17;100.00;99505.66;5284322;28;20115;-84
2023/10/26 00:30:54;;;;;;;21.53;19.43;;;;;;;9.12;100.00;99504.94;5286898;28;20037;-84
2023/10/26 00:33:26;;;;;;;20.87;18.83;;;;;;;9.07;100.00;99505.06;5286615;28;20040;-84
2023/10/26 00:35:57;;;;;;;20.93;18.73;;;;;;;9.13;100.00;99507.50;5286997;28;20371;-83
2023/10/26 00:38:28;;;;;;;20.77;18.73;;;;;;;9.08;100.00;99513.69;5287117;28;20108;-83
2023/10/26 00:41:00;;;;;;;21.60;19.40;;;;;;;9.11;100.00;99519.69;5286155;28;20032;-84
2023/10/26 00:43:32;;;;;;;21.40;19.07;;;;;;;9.12;100.00;99523.13;5286395;28;20101;-83
2023/10/26 00:46:04;;;;;;;21.63;19.50;;;;;;;9.09;100.00;99521.47;5287142;28;20047;-83
2023/10/26 00:48:35;;;;;;;21.57;19.47;;;;;;;9.11;100.00;99524.00;5286316;28;20471;-83
2023/10/26 00:51:06;;;;;;;22.53;20.10;;;;;;;9.10;100.00;99527.53;5286437;28;20060;-82
2023/10/26 00:53:40;;;;;;;21.40;19.20;;;;;;;9.09;100.00;99534.44;5286312;28;20086;-84
2023/10/26 00:56:13;;;;;;;21.52;19.42;;;;;;;9.13;100.00;99537.84;5285164;28;20035;-83
2023/10/26 00:58:45;;;;;;;21.90;19.52;;;;;;;9.09;100.00;99537.06;5286410;28;20021;-84
2023/10/26 01:01:17;;;;;;;22.43;20.13;;;;;;;9.12;100.00;99536.97;5268202;28;20086;-84
2023/10/26 01:03:50;;;;;;;23.15;20.77;;;;;;;9.13;100.00;99537.84;5285163;28;20384;-84
2023/10/26 01:06:23;;;;;;;19.88;17.98;;;;;;;9.06;100.00;99533.69;5284954;28;20388;-84
2023/10/26 01:08:54;;;;;;;19.92;17.92;;;;;;;9.08;100.00;99532.78;5285912;28;20515;-83
2023/10/26 01:11:26;;;;;;;19.53;17.53;;;;;;;9.09;100.00;99542.25;5285726;28;20115;-84
2023/10/26 01:13:58;;;;;;;20.07;18.07;;;;;;;9.04;100.00;99541.53;5285692;28;20029;-84
2023/10/26 01:16:30;;;;;;;20.02;18.10;;;;;;;9.04;100.00;99540.69;5285871;28;20075;-84
2023/10/26 01:19:03;;;;;;;19.17;17.27;;;;;;;9.07;100.00;99538.00;5285606;28;20070;-83
2023/10/26 01:21:53;;;;;;;20.08;17.98;;;;;;;9.08;100.00;99539.69;5285556;28;20032;-83
2023/10/26 01:24:24;;;;;;;18.02;16.02;;;;;;;9.02;100.00;99527.72;5285562;28;20037;-82
2023/10/26 01:26:56;;;;;;;18.27;16.30;;;;;;;8.97;100.00;99536.53;5285456;28;20082;-84
2023/10/26 01:29:27;;;;;;;20.23;18.10;;;;;;;8.94;100.00;99540.06;5285415;28;20033;-82
2023/10/26 01:31:59;;;;;;;19.43;17.40;;;;;;;8.90;100.00;99535.84;5285219;28;20051;-84
2023/10/26 01:34:31;;;;;;;19.13;17.15;;;;;;;8.88;100.00;99535.03;5285307;28;20020;-83
2023/10/26 01:37:04;;;;;;;17.88;16.20;;;;;;;8.86;100.00;99544.63;5284331;28;20159;-84
2023/10/26 01:39:35;;;;;;;17.20;15.50;;;;;;;8.85;100.00;99535.09;5284170;28;20545;-83
2023/10/26 01:42:09;;;;;;;18.43;16.63;;;;;;;8.81;100.00;99538.69;5285482;28;20040;-84
2023/10/26 01:44:41;;;;;;;19.08;17.08;;;;;;;8.80;100.00;99536.97;5284943;28;20475;-83
2023/10/26 01:47:13;;;;;;;19.97;17.87;;;;;;;8.81;100.00;99530.91;5285094;28;20040;-82
2023/10/26 01:49:44;;;;;;;19.17;17.17;;;;;;;8.79;100.00;99532.66;5285783;28;20545;-86
2023/10/26 01:52:16;;;;;;;18.37;16.60;;;;;;;8.83;100.00;99542.09;5303756;28;20286;-85
2023/10/26 01:54:49;;;;;;;21.20;18.57;;;;;;;8.80;100.00;99539.56;5301873;28;20591;-85
2023/10/26 01:57:20;;;;;;;19.98;17.48;;;;;;;8.81;100.00;99539.53;5288344;28;20029;-85
2023/10/26 01:59:55;;;;;;;19.73;17.63;;;;;;;8.77;100.00;99543.09;5286059;28;20365;-85
2023/10/26 02:02:27;;;;;;;19.02;17.13;;;;;;;8.72;100.00;99543.19;5285138;28;20029;-84
2023/10/26 02:04:58;;;;;;;19.83;17.87;;;;;;;8.71;100.00;99540.66;5285106;28;20059;-84
2023/10/26 02:07:29;;;;;;;19.97;17.70;;;;;;;8.65;100.00;99539.06;5268569;28;20033;-85
2023/10/26 02:10:01;;;;;;;20.83;18.83;;;;;;;8.58;100.00;99540.97;5263298;28;20287;-85
2023/10/26 02:12:32;;;;;;;19.63;17.70;;;;;;;8.51;100.00;99530.75;5263969;28;20029;-85
2023/10/26 02:15:04;;;;;;;21.50;18.20;;;;;;;8.46;100.00;99530.03;5264152;28;20065;-83
2023/10/26 02:17:36;;;;;;;20.47;18.37;;;;;;;8.38;100.00;99528.41;5264109;28;20029;-84
2023/10/26 02:20:07;;;;;;;22.30;19.90;;;;;;;8.32;100.00;99520.81;5264727;28;20057;-83
2023/10/26 02:22:39;;;;;;;20.80;18.13;;;;;;;8.30;100.00;99525.16;5264336;28;20041;-83
2023/10/26 02:25:10;;;;;;;21.33;19.00;;;;;;;8.22;100.00;99537.47;5264118;28;20060;-84
2023/10/26 02:27:41;;;;;;;21.27;19.23;;;;;;;8.18;100.00;99539.28;5264645;28;20040;-84
2023/10/26 02:30:13;;;;;;;22.07;19.77;;;;;;;8.18;100.00;99533.25;5264925;28;20136;-84
2023/10/26 02:32:45;;;;;;;19.35;17.35;;;;;;;8.13;100.00;99525.56;5280588;28;20086;-85
2023/10/26 02:35:20;;;;;;;20.40;18.27;;;;;;;8.06;100.00;99523.13;5285341;28;20040;-84
2023/10/26 02:37:52;;;;;;;21.92;19.63;;;;;;;7.98;100.00;99518.97;5285548;28;20083;-82
2023/10/26 02:40:23;;;;;;;22.27;19.42;;;;;;;7.90;100.00;99518.28;5282127;28;20056;-84
2023/10/26 02:42:55;;;;;;;23.30;19.77;;;;;;;7.84;100.00;99523.59;5284407;28;20036;-87
2023/10/26 02:45:26;;;;;;;24.93;20.47;;;;;;;7.84;100.00;99528.78;5283066;28;20036;-85
2023/10/26 02:47:58;;;;;;;25.87;21.50;;;;;;;7.81;100.00;99523.69;5284399;28;20033;-87
2023/10/26 02:50:30;;;;;;;22.20;19.67;;;;;;;7.73;100.00;99517.78;5284397;28;20111;-85
2023/10/26 02:53:01;;;;;;;24.70;19.43;;;;;;;7.67;100.00;99535.19;5282218;28;20124;-85
2023/10/26 02:55:33;;;;;;;23.17;20.67;;;;;;;7.69;100.00;99532.56;5283052;28;20029;-84
2023/10/26 02:58:04;;;;;;;23.33;20.80;;;;;;;7.67;100.00;99539.53;5283886;28;20075;-85
2023/10/26 03:00:35;;;;;;;23.87;21.17;;;;;;;7.64;100.00;99524.88;5282565;28;20033;-85
2023/10/26 03:03:07;;;;;;;28.67;21.87;;;;;;;7.56;100.00;99520.75;5283733;28;20028;-84
2023/10/26 03:05:38;;;;;;;25.43;21.03;;;;;;;7.55;100.00;99529.41;5283622;28;20123;-83
2023/10/26 03:08:11;;;;;;;26.00;20.60;;;;;;;7.45;100.00;99520.97;5283744;28;20102;-84
2023/10/26 03:10:43;;;;;;;24.20;20.23;;;;;;;7.44;100.00;99527.06;5281828;28;20078;-85
2023/10/26 03:13:14;;;;;;;22.17;19.07;;;;;;;7.37;100.00;99518.53;5282067;28;20036;-85
2023/10/26 03:15:46;;;;;;;23.73;19.53;;;;;;;7.25;100.00;99527.41;5283134;28;20147;-85
2023/10/26 03:18:17;;;;;;;23.03;18.37;;;;;;;7.25;100.00;99530.00;5282415;28;20113;-85
2023/10/26 03:20:48;;;;;;;22.47;18.70;;;;;;;7.20;100.00;99536.16;5283372;28;20060;-84
2023/10/26 03:23:20;;;;;;;22.03;18.73;;;;;;;7.18;100.00;99532.72;5283289;28;20399;-86
2023/10/26 03:25:51;;;;;;;22.70;19.30;;;;;;;7.17;100.00;99528.44;5283272;28;20365;-84
2023/10/26 03:28:22;;;;;;;26.73;22.03;;;;;;;7.19;100.00;99532.69;5283328;28;20033;-86
2023/10/26 03:30:54;;;;;;;25.47;20.80;;;;;;;7.14;100.00;99528.50;5282247;28;20040;-84
2023/10/26 03:33:26;;;;;;;25.90;22.03;;;;;;;7.18;100.00;99532.72;5281882;28;20115;-85
2023/10/26 03:35:57;;;;;;;26.70;21.70;;;;;;;7.17;100.00;99531.03;5282986;28;20051;-84
2023/10/26 03:38:29;;;;;;;25.83;20.17;;;;;;;7.11;100.00;99522.47;5283314;28;20060;-85
2023/10/26 03:41:00;;;;;;;29.17;21.63;;;;;;;7.04;100.00;99515.72;5282960;28;20093;-86
2023/10/26 03:43:31;;;;;;;23.90;19.33;;;;;;;7.01;100.00;99509.75;5282201;28;20498;-86
2023/10/26 03:46:04;;;;;;;25.93;19.37;;;;;;;6.96;100.00;99508.97;5283493;28;20035;-86
2023/10/26 03:48:36;;;;;;;26.05;20.88;;;;;;;6.88;100.00;99517.72;5283330;28;20032;-85
2023/10/26 03:51:07;;;;;;;28.37;20.67;;;;;;;6.85;100.00;99512.59;5283596;28;20029;-86
2023/10/26 03:53:39;;;;;;;27.33;21.33;;;;;;;6.92;100.00;99501.25;5283229;28;20074;-85
2023/10/26 03:56:10;;;;;;;29.07;20.97;;;;;;;6.92;100.00;99492.63;5283642;28;20121;-86
2023/10/26 03:58:41;;;;;;;38.70;22.33;;;;;;;6.97;100.00;99495.13;5283512;28;20063;-86
2023/10/26 04:01:14;;;;;;;27.83;20.27;;;;;;;7.07;100.00;99496.69;5283403;28;20043;-86
2023/10/26 04:03:45;;;;;;;244.13;38.17;;;;;;;7.19;100.00;99495.56;5284065;28;20028;-86
2023/10/26 04:06:17;;;;;;;518.87;61.97;;;;;;;7.25;100.00;99485.09;5287029;28;20090;-84
2023/10/26 04:08:48;;;;;;;484.07;56.93;;;;;;;7.28;100.00;99493.66;5287386;28;20078;-85
2023/10/26 04:11:20;;;;;;;359.43;41.13;;;;;;;7.35;100.00;99488.34;5286670;28;20149;-84
2023/10/26 04:13:53;;;;;;;638.77;68.83;;;;;;;7.33;100.00;99488.38;5287386;28;20107;-84
2023/10/26 04:16:25;;;;;;;427.45;50.75;;;;;;;7.36;100.00;99484.84;5287377;28;20056;-84
2023/10/26 04:18:56;;;;;;;488.10;53.00;;;;;;;7.38;100.00;99483.09;5287116;28;20077;-85
2023/10/26 04:21:28;;;;;;;623.33;65.60;;;;;;;7.37;100.00;99481.38;5287297;28;20032;-85
2023/10/26 04:23:59;;;;;;;725.07;76.17;;;;;;;7.27;100.00;99491.09;5287289;28;20443;-84
2023/10/26 04:26:31;;;;;;;544.90;60.07;;;;;;;7.24;100.00;99494.56;5286936;28;20442;-85
2023/10/26 04:29:05;;;;;;;426.27;42.00;;;;;;;7.27;100.00;99496.28;5285481;28;20029;-84
2023/10/26 04:31:36;;;;;;;565.15;62.35;;;;;;;7.21;100.00;99498.97;5288915;28;20021;-85
2023/10/26 04:34:07;;;;;;;104.03;28.37;;;;;;;7.29;100.00;99499.69;5311101;28;20019;-85
2023/10/26 04:36:39;;;;;;;102.33;28.20;;;;;;;7.33;100.00;99498.75;5300001;28;20048;-84
2023/10/26 04:39:10;;;;;;;103.00;28.13;;;;;;;7.29;100.00;99495.38;5289128;28;20491;-84
2023/10/26 04:41:41;;;;;;;189.93;31.70;;;;;;;7.22;100.00;99496.34;5286876;28;20029;-84
2023/10/26 04:44:13;;;;;;;224.37;29.17;;;;;;;7.21;100.00;99497.25;5287092;28;20036;-84
2023/10/26 04:46:44;;;;;;;183.20;27.83;;;;;;;7.17;100.00;99499.94;5285915;28;20036;-86
2023/10/26 04:49:16;;;;;;;333.43;38.40;;;;;;;7.05;100.00;99499.28;5286741;28;20029;-78
2023/10/26 04:51:47;;;;;;;192.67;28.50;;;;;;;7.09;100.00;99494.91;5286033;28;20041;-79
2023/10/26 04:54:18;;;;;;;181.57;27.70;;;;;;;7.07;100.00;99494.09;5286171;28;20072;-80
2023/10/26 04:56:50;;;;;;;136.40;25.60;;;;;;;7.06;100.00;99492.38;5286208;28;20110;-79
2023/10/26 04:59:21;;;;;;;350.17;39.10;;;;;;;6.97;100.00;99492.53;5286166;28;20032;-80
2023/10/26 05:01:52;;;;;;;268.27;28.83;;;;;;;7.03;100.00;99490.66;5268321;28;20029;-79
2023/10/26 05:04:24;;;;;;;240.03;28.30;;;;;;;7.00;100.00;99484.69;5286463;28;20037;-78
2023/10/26 05:06:55;;;;;;;409.37;41.70;;;;;;;6.96;100.00;99490.84;5286499;28;20030;-78
2023/10/26 05:09:27;;;;;;;355.80;33.27;;;;;;;6.90;100.00;99489.19;5286340;28;20036;-79
2023/10/26 05:11:58;;;;;;;290.07;31.07;;;;;;;6.89;100.00;99488.38;5285781;28;20024;-80
2023/10/26 05:14:29;;;;;;;257.20;30.83;;;;;;;6.89;100.00;99488.38;5266720;28;20530;-78
2023/10/26 05:17:01;;;;;;;413.57;44.43;;;;;;;6.81;100.00;99479.88;5285304;28;20056;-79
2023/10/26 05:19:32;;;;;;;211.67;29.50;;;;;;;6.87;100.00;99476.31;5284660;28;20146;-78
2023/10/26 05:22:04;;;;;;;313.27;35.17;;;;;;;6.93;100.00;99478.78;5285711;28;20369;-77
2023/10/26 05:24:37;;;;;;;305.00;36.13;;;;;;;7.00;100.00;99484.69;5284152;28;20088;-77
2023/10/26 05:27:08;;;;;;;256.67;31.85;;;;;;;7.09;100.00;99479.34;5284273;28;20029;-77
2023/10/26 05:29:39;;;;;;;514.80;51.00;;;;;;;7.11;100.00;99477.56;5285830;28;20434;-78
2023/10/26 05:32:11;;;;;;;321.40;36.97;;;;;;;7.16;100.00;99473.16;5286009;28;20037;-79
2023/10/26 05:34:42;;;;;;;353.43;38.93;;;;;;;7.15;100.00;99478.34;5285499;28;20033;-78
2023/10/26 05:37:13;;;;;;;493.83;51.27;;;;;;;7.08;100.00;99472.44;5285728;28;20024;-78
2023/10/26 05:39:45;;;;;;;582.43;64.37;;;;;;;7.08;100.00;99472.44;5283815;28;20094;-78
2023/10/26 05:42:16;;;;;;;436.93;46.50;;;;;;;7.09;100.00;99474.16;5285949;28;20055;-79
2023/10/26 05:44:48;;;;;;;355.57;40.70;;;;;;;7.06;100.00;99477.66;5284481;28;20067;-77
2023/10/26 05:47:19;;;;;;;310.43;35.90;;;;;;;7.09;100.00;99476.75;5267388;28;20033;-78
2023/10/26 05:49:51;;;;;;;258.27;33.87;;;;;;;7.11;100.00;99478.41;5284925;28;20037;-77
2023/10/26 05:52:22;;;;;;;286.07;41.37;;;;;;;7.11;100.00;99468.06;5284734;28;20033;-79
2023/10/26 05:54:54;;;;;;;315.63;43.17;;;;;;;7.05;100.00;99468.19;5283478;28;20063;-79
2023/10/26 05:57:28;;;;;;;227.33;33.70;;;;;;;7.03;100.00;99461.31;5283608;28;20094;-79
2023/10/26 05:59:59;;;;;;;173.93;33.25;;;;;;;7.07;100.00;99452.63;5283778;28;20146;-77
2023/10/26 06:02:31;;;;;;;146.47;28.03;;;;;;;7.09;100.00;99451.69;5284827;28;20418;-79
2023/10/26 06:05:02;;;;;;;111.87;26.67;;;;;;;7.08;100.00;99459.50;5284690;28;20040;-79
2023/10/26 06:07:33;;;;;;;114.10;26.87;;;;;;;7.09;100.00;99458.63;5284867;28;20057;-78
2023/10/26 06:10:06;;;;;;;194.67;31.50;;;;;;;7.04;100.00;99461.28;5266660;28;20119;-78
2023/10/26 06:12:38;;;;;;;299.08;36.95;;;;;;;6.90;100.00;99469.31;5285157;28;20039;-79
2023/10/26 06:15:10;;;;;;;;;;;;;;;7.01;100.00;99470.88;5285035;28;20040;-78
2023/10/26 06:17:41;;;;;;;251.10;32.50;;;;;;;6.78;100.00;99466.97;5267074;28;19965;-78
2023/10/26 06:20:13;;;;;;;257.80;33.97;;;;;;;6.67;100.00;99467.16;5285798;28;20028;-78
2023/10/26 06:22:44;;;;;;;144.13;27.27;;;;;;;6.80;100.00;99459.19;5289755;28;20036;-78
2023/10/26 06:25:16;;;;;;;169.10;28.23;;;;;;;6.81;100.00;99461.75;5296220;28;20036;-78
2023/10/26 06:27:47;;;;;;;202.20;31.25;;;;;;;6.88;100.00;99462.47;5291688;28;20487;-77
2023/10/26 06:30:19;;;;;;;189.90;32.03;;;;;;;6.91;100.00;99462.44;5290531;28;20043;-78
2023/10/26 06:32:50;;;;;;;216.73;31.40;;;;;;;6.93;100.00;99460.66;5284875;28;20024;-78
2023/10/26 06:35:22;;;;;;;209.03;35.77;;;;;;;6.93;100.00;99463.25;5283962;28;20028;-79
2023/10/26 06:37:53;;;;;;;250.37;35.47;;;;;;;6.99;100.00;99462.25;5282756;28;20028;-78
2023/10/26 06:40:25;;;;;;;177.93;31.30;;;;;;;7.10;100.00;99466.38;5283852;28;20036;-78
2023/10/26 06:42:56;;;;;;;344.97;43.20;;;;;;;7.10;100.00;99471.53;5284325;28;20075;-79
2023/10/26 06:45:27;;;;;;;149.27;31.63;;;;;;;7.20;100.00;99481.75;5284135;28;20037;-79
2023/10/26 06:47:59;;;;;;;271.77;34.93;;;;;;;7.15;100.00;99468.88;5282762;28;20124;-78
2023/10/26 06:50:30;;;;;;;238.83;36.73;;;;;;;7.17;100.00;99464.50;5282394;28;20499;-79
2023/10/26 06:53:01;;;;;;;266.17;42.57;;;;;;;7.19;100.00;99467.06;5283906;28;20473;-79
2023/10/26 06:55:33;;;;;;;194.77;30.33;;;;;;;7.21;100.00;99460.09;5283888;28;20029;-78
2023/10/26 06:58:05;;;;;;;297.90;36.38;;;;;;;7.14;100.00;99464.56;5283611;28;20040;-79
2023/10/26 07:00:36;;;;;;;126.77;27.57;;;;;;;7.17;100.00;99466.25;5282392;28;20556;-78
2023/10/26 07:03:07;;;;;;;223.17;32.03;;;;;;;7.17;100.00;99471.44;5283417;28;20064;-78
2023/10/26 07:05:40;;;;;;;353.53;39.10;;;;;;;7.14;100.00;99472.34;5282214;28;20044;-79
2023/10/26 07:08:11;;;;;;;150.38;27.77;;;;;;;7.24;100.00;99450.53;5283828;28;20444;-79
2023/10/26 07:10:43;;;;;;;282.97;35.40;;;;;;;7.25;100.00;99447.06;5283298;28;20036;-79
2023/10/26 07:13:15;;;;;;;128.60;25.30;;;;;;;7.36;100.00;99448.56;5294043;28;20107;-80
2023/10/26 07:15:47;;;;;;;233.20;32.03;;;;;;;7.38;100.00;99449.41;5275764;28;20201;-78
2023/10/26 07:18:18;;;;;;;210.67;29.97;;;;;;;7.42;100.00;99454.50;5285356;28;20024;-77
2023/10/26 07:20:50;;;;;;;165.03;27.90;;;;;;;7.48;100.00;99458.69;5283699;28;20360;-79
2023/10/26 07:23:22;;;;;;;217.88;29.38;;;;;;;7.49;100.00;99463.81;5283662;28;20033;-79
2023/10/26 07:25:53;;;;;;;112.97;24.17;;;;;;;7.48;100.00;99461.28;5283704;28;20048;-79
2023/10/26 07:28:24;;;;;;;258.20;30.93;;;;;;;7.42;100.00;99457.09;5283480;28;20107;-79
2023/10/26 07:30:56;;;;;;;470.53;44.97;;;;;;;7.33;100.00;99456.44;5283911;28;20055;-78
2023/10/26 07:33:27;;;;;;;240.73;27.50;;;;;;;7.44;100.00;99455.31;5283900;28;20033;-79
2023/10/26 07:35:59;;;;;;;166.60;24.77;;;;;;;7.58;100.00;99461.91;5282464;28;20032;-79
2023/10/26 07:38:30;;;;;;;207.50;27.57;;;;;;;7.60;100.00;99457.53;5284194;28;20052;-78
2023/10/26 07:41:03;;;;;;;148.67;25.33;;;;;;;7.66;100.00;99457.41;5290606;28;20029;-78
2023/10/26 07:43:35;;;;;;;220.15;27.25;;;;;;;7.57;100.00;99457.63;5289199;28;20064;-79
2023/10/26 07:46:07;;;;;;;196.97;25.57;;;;;;;7.66;100.00;99463.47;5284176;28;20066;-78
2023/10/26 07:48:38;;;;;;;306.20;29.83;;;;;;;7.60;100.00;99462.72;5283676;28;20032;-79
2023/10/26 07:51:10;;;;;;;278.10;28.47;;;;;;;7.66;100.00;99470.38;5283606;28;20029;-79
2023/10/26 07:53:41;;;;;;;242.97;27.97;;;;;;;7.70;100.00;99474.63;5282902;28;20083;-79
2023/10/26 07:56:12;;;;;;;210.50;28.00;;;;;;;7.77;100.00;99472.75;5281898;28;20029;-79
2023/10/26 07:58:44;;;;;;;214.50;29.67;;;;;;;7.72;100.00;99470.25;5281939;28;20043;-78
2023/10/26 08:01:15;;;;;;;162.43;25.57;;;;;;;7.83;100.00;99483.00;5283143;28;20029;-80
2023/10/26 08:03:48;;;;;;;186.03;27.87;;;;;;;7.89;100.00;99482.88;5282926;28;20036;-79
2023/10/26 08:06:20;;;;;;;82.50;22.67;;;;;;;7.99;100.00;99484.34;5283517;28;20049;-80
2023/10/26 08:08:54;;;;;;;150.80;27.07;;;;;;;7.73;100.00;99489.25;5281870;28;20472;-79
2023/10/26 08:11:25;;;;;;;195.77;27.73;;;;;;;7.61;100.00;99493.81;5281464;28;20032;-77
2023/10/26 08:13:57;;;;;;;179.07;28.97;;;;;;;7.71;100.00;99485.84;5283673;28;20032;-80
2023/10/26 08:16:28;;;;;;;149.60;25.63;;;;;;;7.75;100.00;99488.34;5282667;28;20507;-79
2023/10/26 08:18:59;;;;;;;93.67;25.43;;;;;;;7.97;100.00;99486.13;5282944;28;20032;-79
2023/10/26 08:21:31;;;;;;;89.73;24.73;;;;;;;8.04;100.00;99492.03;5282855;28;20029;-78
2023/10/26 08:24:02;;;;;;;111.07;26.80;;;;;;;8.17;100.00;99487.41;5282774;28;20507;-79
2023/10/26 08:26:34;;;;;;;73.70;24.03;;;;;;;8.23;100.00;99492.44;5282777;28;20025;-79
2023/10/26 08:29:05;;;;;;;89.40;26.37;;;;;;;8.38;100.00;99492.06;5281280;28;20036;-79
2023/10/26 08:31:37;;;;;;;114.67;28.57;;;;;;;8.37;100.00;99495.56;5282634;28;20549;-80
2023/10/26 08:34:08;;;;;;;57.17;25.00;;;;;;;8.48;100.00;99494.47;5282759;28;20031;-78
2023/10/26 08:36:39;;;;;;;49.70;24.33;;;;;;;8.37;100.00;99495.56;5282541;28;20035;-79
2023/10/26 08:39:12;;;;;;;108.30;29.23;;;;;;;8.33;100.00;99493.09;5282597;28;20044;-79
2023/10/26 08:41:50;;;;;;;80.38;28.50;;;;;;;8.34;100.00;99495.66;5282409;28;20043;-79
2023/10/26 08:44:22;;;;;;;44.50;24.73;;;;;;;8.50;100.00;99496.16;5282821;28;20054;-79
2023/10/26 08:46:58;;;;;;;36.73;24.73;;;;;;;8.68;100.00;99494.84;5282352;28;20037;-79
2023/10/26 08:49:30;;;;;;;51.75;26.88;;;;;;;8.76;100.00;99492.03;5282730;28;20084;-79
2023/10/26 08:52:02;;;;;;;50.97;28.33;;;;;;;8.88;100.00;99481.31;5285250;28;20116;-80
2023/10/26 08:54:33;;;;;;;48.57;26.07;;;;;;;9.12;100.00;99487.56;5286269;28;20108;-80
2023/10/26 08:57:06;;;;;;;38.87;25.83;;;;;;;9.26;100.00;99494.16;5286142;28;20024;-78
2023/10/26 08:59:38;;;;;;;51.35;27.25;;;;;;;9.29;100.00;99494.09;5285973;28;20032;-79
2023/10/26 09:02:10;;;;;;;35.85;23.60;;;;;;;9.47;100.00;99493.53;5285904;28;20134;-79
2023/10/26 09:05:04;;;;;;;32.00;24.80;;;;;;;9.74;100.00;99488.44;5286381;28;20116;-79
2023/10/26 09:07:35;;;;;;;42.75;24.40;;;;;;;9.62;100.00;99483.59;5285840;28;20025;-79
2023/10/26 09:10:07;;;;;;;28.43;20.53;;;;;;;9.66;100.00;99486.06;5285608;28;20480;-78
2023/10/26 09:12:39;;;;;;;27.20;22.58;;;;;;;9.70;100.00;99492.00;5285853;28;20109;-78
2023/10/26 09:15:11;;;;;;;27.80;21.60;;;;;;;9.83;100.00;99493.34;5285578;28;20021;-80
2023/10/26 09:17:42;;;;;;;27.53;20.70;;;;;;;9.85;100.00;99488.94;5284831;28;20143;-79
2023/10/26 09:20:23;;;;;;;24.83;20.17;;;;;;;10.06;100.00;99485.72;5285771;28;20278;-79
2023/10/26 09:22:54;;;;;;;21.75;19.42;;;;;;;9.94;100.00;99481.75;5285623;28;20108;-78
2023/10/26 09:25:26;;;;;;;24.17;20.47;;;;;;;10.15;100.00;99485.44;5285363;28;20033;-80
2023/10/26 09:28:04;;;;;;;23.70;20.27;;;;;;;10.20;100.00;99489.56;5285915;28;20380;-80
2023/10/26 09:30:39;;;;;;;23.52;20.20;;;;;;;10.19;100.00;99481.81;5285574;28;20110;-79
2023/10/26 09:33:23;;;;;;;23.85;21.17;;;;;;;10.24;100.00;99487.75;5285289;28;20039;-79
2023/10/26 09:35:54;;;;;;;23.00;20.17;;;;;;;10.11;100.00;99479.47;5285584;28;20033;-79
2023/10/26 09:38:34;;;;;;;23.03;19.83;;;;;;;10.19;100.00;99490.50;5284070;28;20039;-79
2023/10/26 09:41:11;;;;;;;24.42;20.52;;;;;;;10.17;100.00;99486.22;5284864;28;20024;-80
2023/10/26 09:43:43;;;;;;;25.50;21.08;;;;;;;10.25;100.00;99484.22;5285883;28;20024;-79
2023/10/26 09:46:14;;;;;;;24.47;20.93;;;;;;;10.30;100.00;99481.47;5287033;28;20499;-80
2023/10/26 09:48:46;;;;;;;26.00;22.40;;;;;;;10.35;100.00;99482.22;5284390;28;20306;-80
2023/10/26 09:51:19;;;;;;;25.00;22.13;;;;;;;10.35;100.00;99480.47;5293401;28;20086;-80
2023/10/26 09:53:51;;;;;;;24.67;22.02;;;;;;;10.41;100.00;99471.59;5298198;28;20040;-80
2023/10/26 09:56:27;;;;;;;23.95;21.35;;;;;;;10.37;100.00;99478.66;5288868;28;20115;-80
2023/10/26 09:58:59;;;;;;;25.58;20.95;;;;;;;10.29;100.00;99461.53;5284427;28;20044;-79
2023/10/26 10:01:36;;;;;;;21.98;19.67;;;;;;;10.20;100.00;99466.16;5284962;28;20036;-80
2023/10/26 10:04:09;;;;;;;23.80;21.05;;;;;;;10.17;100.00;99470.59;5285233;28;20033;-80
2023/10/26 10:06:51;;;;;;;22.50;20.13;;;;;;;10.22;100.00;99471.31;5284859;28;20364;-80
2023/10/26 10:09:25;;;;;;;20.67;18.60;;;;;;;10.16;100.00;99469.75;5284912;28;20039;-80
2023/10/26 10:12:13;;;;;;;22.30;19.90;;;;;;;10.45;100.00;99457.56;5284490;28;20383;-80
2023/10/26 10:14:48;;;;;;;21.42;19.08;;;;;;;10.37;100.00;99456.97;5285109;28;20467;-81
2023/10/26 10:17:21;;;;;;;29.42;18.83;;;;;;;10.43;100.00;99459.34;5284899;28;20060;-81
2023/10/26 10:20:15;;;;;;;22.17;19.50;;;;;;;10.49;100.00;99450.50;5285220;28;20036;-79
2023/10/26 10:22:53;;;;;;;22.35;19.95;;;;;;;10.33;100.00;99455.38;5285369;28;20071;-80
2023/10/26 10:25:49;;;;;;;20.45;18.27;;;;;;;10.35;100.00;99453.56;5283901;28;20025;-79
2023/10/26 10:28:20;;;;;;;21.42;19.13;;;;;;;10.31;100.00;99438.91;5283787;28;20032;-81
2023/10/26 10:30:58;;;;;;;20.67;18.50;;;;;;;10.46;100.00;99440.19;5285042;28;20040;-80
2023/10/26 10:33:29;;;;;;;22.85;20.55;;;;;;;10.36;100.00;99432.66;5285074;28;20021;-80
2023/10/26 10:36:03;;;;;;;23.33;20.97;;;;;;;10.43;100.00;99427.25;5284217;28;20048;-80
2023/10/26 10:38:35;;;;;;;19.15;17.15;;;;;;;10.41;100.00;99427.31;5284522;28;20052;-80
2023/10/26 10:41:07;;;;;;;17.77;16.03;;;;;;;10.52;100.00;99439.97;5283894;28;20032;-81
2023/10/26 10:43:40;;;;;;;19.45;17.40;;;;;;;10.56;100.00;99437.22;5284156;28;20103;-79
2023/10/26 10:46:15;;;;;;;17.98;16.08;;;;;;;10.49;100.00;99435.72;5284133;28;20044;-80
2023/10/26 10:49:00;;;;;;;21.63;17.67;;;;;;;10.60;100.00;99432.75;5283849;28;20553;-81
2023/10/26 10:51:44;;;;;;;18.77;16.77;;;;;;;10.78;100.00;99428.63;5283986;28;20036;-79
2023/10/26 10:54:21;;;;;;;17.85;16.05;;;;;;;10.92;100.00;99423.78;5283836;28;20085;-80
2023/10/26 10:56:52;;;;;;;17.15;15.43;;;;;;;11.13;100.00;99416.09;5283619;28;20028;-80
2023/10/26 10:59:29;;;;;;;21.10;14.90;;;;;;;11.40;100.00;99409.00;5283742;28;20039;-80
2023/10/26 11:02:13;;;;;;;16.23;14.55;;;;;;;11.63;100.00;99405.47;5284646;28;20032;-80
2023/10/26 11:04:59;;;;;;;15.95;14.23;;;;;;;11.72;100.00;99413.84;5284723;28;20052;-81
2023/10/26 11:07:30;;;;;;;15.73;14.23;;;;;;;11.71;100.00;99412.16;5284251;28;20036;-80
2023/10/26 11:10:02;;;;;;;16.50;14.80;;;;;;;11.64;100.00;99420.25;5283608;28;20037;-81
2023/10/26 11:12:34;;;;;;;16.75;14.63;;;;;;;11.62;100.00;99421.19;5283790;28;20395;-79
2023/10/26 11:15:07;;;;;;;15.83;14.33;;;;;;;11.57;100.00;99415.31;5284366;28;20025;-79
2023/10/26 11:17:39;;;;;;;15.98;14.32;;;;;;;11.46;100.00;99427.03;5284486;28;20044;-80
2023/10/26 11:20:37;;;;;;;17.30;15.60;;;;;;;11.96;100.00;99418.16;5282432;28;20395;-80
2023/10/26 11:23:13;;;;;;;15.35;13.73;;;;;;;12.62;100.00;99411.06;5282177;28;20029;-81
2023/10/26 11:25:45;;;;;;;14.85;13.43;;;;;;;13.58;100.00;99398.03;5283261;28;20041;-82
2023/10/26 11:28:32;;;;;;;16.08;14.63;;;;;;;14.65;98.93;99412.03;5283302;28;20036;-81
2023/10/26 11:31:03;;;;;;;18.65;14.30;;;;;;;15.94;93.95;99406.81;5283233;28;20447;-80
2023/10/26 11:33:40;;;;;;;15.07;13.50;;;;;;;16.01;87.33;99408.16;5282000;28;20111;-81
2023/10/26 11:36:12;;;;;;;13.55;12.35;;;;;;;15.56;84.14;99409.78;5281827;28;20515;-81
2023/10/26 11:38:49;;;;;;;13.70;12.38;;;;;;;15.07;85.63;99409.81;5282931;28;20150;-81